sensor_id;sensor_type;location;lat;lon;timestamp;pressure;altitude;pressure_sealevel;temperature;humidity
34931;BME280;21134;49.646;8.560;2023-09-30T00:01:53;101259.06;;;17.21;90.63
34931;BME280;21134;49.646;8.560;2023-09-30T00:04:20;101260.81;;;17.19;90.97
34931;BME280;21134;49.646;8.560;2023-09-30T00:06:46;101260.84;;;17.17;91.12
34931;BME280;21134;49.646;8.560;2023-09-30T00:09:14;101261.84;;;17.10;90.80
34931;BME280;21134;49.646;8.560;2023-09-30T00:11:41;101266.22;;;17.05;91.69
34931;BME280;21134;49.646;8.560;2023-09-30T00:14:07;101282.69;;;16.98;91.74
34931;BME280;21134;49.646;8.560;2023-09-30T00:16:33;101279.41;;;16.88;92.28
34931;BME280;21134;49.646;8.560;2023-09-30T00:19:00;101295.88;;;16.78;93.27
34931;BME280;21134;49.646;8.560;2023-09-30T00:21:27;101289.06;;;16.71;93.51
34931;BME280;21134;49.646;8.560;2023-09-30T00:23:54;101290.94;;;16.61;93.84
34931;BME280;21134;49.646;8.560;2023-09-30T00:26:22;101291.88;;;16.54;94.27
34931;BME280;21134;49.646;8.560;2023-09-30T00:28:48;101301.41;;;16.49;94.69
34931;BME280;21134;49.646;8.560;2023-09-30T00:31:14;101299.72;;;16.48;95.30
34931;BME280;21134;49.646;8.560;2023-09-30T00:33:41;101298.00;;;16.47;95.01
34931;BME280;21134;49.646;8.560;2023-09-30T00:36:08;101293.72;;;16.43;94.79
34931;BME280;21134;49.646;8.560;2023-09-30T00:38:36;101301.47;;;16.43;95.20
34931;BME280;21134;49.646;8.560;2023-09-30T00:41:02;101305.81;;;16.42;95.28
34931;BME280;21134;49.646;8.560;2023-09-30T00:43:30;101312.69;;;16.42;94.73
34931;BME280;21134;49.646;8.560;2023-09-30T00:46:02;101310.19;;;16.37;95.21
34931;BME280;21134;49.646;8.560;2023-09-30T00:48:32;101317.81;;;16.46;95.40
34931;BME280;21134;49.646;8.560;2023-09-30T00:50:58;101316.09;;;16.47;95.22
34931;BME280;21134;49.646;8.560;2023-09-30T00:53:25;101318.63;;;16.50;94.87
34931;BME280;21134;49.646;8.560;2023-09-30T00:55:52;101315.22;;;16.48;95.00
34931;BME280;21134;49.646;8.560;2023-09-30T00:58:20;101317.75;;;16.49;95.44
34931;BME280;21134;49.646;8.560;2023-09-30T01:00:48;101316.91;;;16.49;95.11
34931;BME280;21134;49.646;8.560;2023-09-30T01:03:15;101305.72;;;16.48;94.93
34931;BME280;21134;49.646;8.560;2023-09-30T01:05:41;101311.78;;;16.47;94.67
34931;BME280;21134;49.646;8.560;2023-09-30T01:08:08;101318.59;;;16.51;94.98
34931;BME280;21134;49.646;8.560;2023-09-30T01:10:35;101316.91;;;16.50;95.23
34931;BME280;21134;49.646;8.560;2023-09-30T01:13:02;101316.91;;;16.50;95.14
34931;BME280;21134;49.646;8.560;2023-09-30T01:15:28;101312.56;;;16.52;95.02
34931;BME280;21134;49.646;8.560;2023-09-30T01:17:56;101310.81;;;16.55;95.06
34931;BME280;21134;49.646;8.560;2023-09-30T01:20:23;101303.91;;;16.55;94.81
34931;BME280;21134;49.646;8.560;2023-09-30T01:22:51;101311.66;;;16.57;94.50
34931;BME280;21134;49.646;8.560;2023-09-30T01:25:17;101308.22;;;16.56;94.37
34931;BME280;21134;49.646;8.560;2023-09-30T01:27:44;101308.19;;;16.59;94.43
34931;BME280;21134;49.646;8.560;2023-09-30T01:30:11;101306.50;;;16.57;94.73
34931;BME280;21134;49.646;8.560;2023-09-30T01:32:39;101309.94;;;16.57;95.00
34931;BME280;21134;49.646;8.560;2023-09-30T01:35:06;101317.66;;;16.59;95.09
34931;BME280;21134;49.646;8.560;2023-09-30T01:37:33;101314.22;;;16.58;94.77
34931;BME280;21134;49.646;8.560;2023-09-30T01:40:01;101316.78;;;16.58;94.76
34931;BME280;21134;49.646;8.560;2023-09-30T01:42:29;101309.94;;;16.57;95.04
34931;BME280;21134;49.646;8.560;2023-09-30T01:44:55;101315.94;;;16.59;95.07
34931;BME280;21134;49.646;8.560;2023-09-30T01:47:23;101323.63;;;16.62;94.64
34931;BME280;21134;49.646;8.560;2023-09-30T01:49:49;101326.25;;;16.61;94.42
34931;BME280;21134;49.646;8.560;2023-09-30T01:52:16;101322.78;;;16.63;94.73
34931;BME280;21134;49.646;8.560;2023-09-30T01:54:42;101333.88;;;16.68;94.46
34931;BME280;21134;49.646;8.560;2023-09-30T01:57:10;101330.50;;;16.65;94.26
34931;BME280;21134;49.646;8.560;2023-09-30T01:59:37;101327.94;;;16.63;94.61
34931;BME280;21134;49.646;8.560;2023-09-30T02:02:04;101324.50;;;16.63;95.20
34931;BME280;21134;49.646;8.560;2023-09-30T02:04:31;101320.16;;;16.65;94.65
34931;BME280;21134;49.646;8.560;2023-09-30T02:06:57;101309.81;;;16.65;94.55
34931;BME280;21134;49.646;8.560;2023-09-30T02:09:24;101316.72;;;16.66;94.78
34931;BME280;21134;49.646;8.560;2023-09-30T02:11:51;101313.28;;;16.64;95.35
34931;BME280;21134;49.646;8.560;2023-09-30T02:14:19;101315.03;;;16.62;94.96
34931;BME280;21134;49.646;8.560;2023-09-30T02:16:46;101321.03;;;16.64;95.14
34931;BME280;21134;49.646;8.560;2023-09-30T02:19:13;101322.78;;;16.62;95.28
34931;BME280;21134;49.646;8.560;2023-09-30T02:21:40;101320.22;;;16.60;95.37
34931;BME280;21134;49.646;8.560;2023-09-30T02:24:07;101321.13;;;16.59;95.28
34931;BME280;21134;49.646;8.560;2023-09-30T02:26:33;101328.03;;;16.57;95.84
34931;BME280;21134;49.646;8.560;2023-09-30T02:29:00;101331.50;;;16.56;96.43
34931;BME280;21134;49.646;8.560;2023-09-30T02:31:28;101342.66;;;16.55;96.95
34931;BME280;21134;49.646;8.560;2023-09-30T02:33:54;101335.81;;;16.54;96.14
34931;BME280;21134;49.646;8.560;2023-09-30T02:36:21;101336.69;;;16.53;96.26
34931;BME280;21134;49.646;8.560;2023-09-30T02:38:47;101336.69;;;16.51;96.16
34931;BME280;21134;49.646;8.560;2023-09-30T02:41:15;101338.44;;;16.51;96.39
34931;BME280;21134;49.646;8.560;2023-09-30T02:43:42;101350.47;;;16.52;96.32
34931;BME280;21134;49.646;8.560;2023-09-30T02:46:09;101347.88;;;16.52;96.57
34931;BME280;21134;49.646;8.560;2023-09-30T02:48:37;101353.94;;;16.51;96.53
34931;BME280;21134;49.646;8.560;2023-09-30T02:51:03;101350.50;;;16.50;96.20
34931;BME280;21134;49.646;8.560;2023-09-30T02:53:30;101348.75;;;16.49;96.14
34931;BME280;21134;49.646;8.560;2023-09-30T02:55:57;101353.16;;;16.44;96.31
34931;BME280;21134;49.646;8.560;2023-09-30T02:58:25;101360.97;;;16.38;96.13
34931;BME280;21134;49.646;8.560;2023-09-30T03:00:51;101371.25;;;16.40;95.61
34931;BME280;21134;49.646;8.560;2023-09-30T03:03:19;101371.25;;;16.41;95.34
34931;BME280;21134;49.646;8.560;2023-09-30T03:05:48;101375.56;;;16.41;95.64
34931;BME280;21134;49.646;8.560;2023-09-30T03:08:15;101368.72;;;16.38;96.08
34931;BME280;21134;49.646;8.560;2023-09-30T03:10:42;101367.00;;;16.37;95.59
34931;BME280;21134;49.646;8.560;2023-09-30T03:13:08;101368.75;;;16.35;95.90
34931;BME280;21134;49.646;8.560;2023-09-30T03:15:35;101365.38;;;16.28;96.27
34931;BME280;21134;49.646;8.560;2023-09-30T03:18:04;101367.09;;;16.26;96.53
34931;BME280;21134;49.646;8.560;2023-09-30T03:20:31;101359.44;;;16.19;96.72
34931;BME280;21134;49.646;8.560;2023-09-30T03:22:58;101350.03;;;16.13;97.00
34931;BME280;21134;49.646;8.560;2023-09-30T03:25:25;101349.28;;;16.05;97.58
34931;BME280;21134;49.646;8.560;2023-09-30T03:27:52;101345.88;;;16.00;97.28
34931;BME280;21134;49.646;8.560;2023-09-30T03:30:18;101340.78;;;15.91;97.95
34931;BME280;21134;49.646;8.560;2023-09-30T03:32:46;101342.63;;;15.78;98.10
34931;BME280;21134;49.646;8.560;2023-09-30T03:35:12;101353.00;;;15.72;98.10
34931;BME280;21134;49.646;8.560;2023-09-30T03:37:42;101357.31;;;15.65;98.52
34931;BME280;21134;49.646;8.560;2023-09-30T03:40:11;101366.00;;;15.55;98.48
34931;BME280;21134;49.646;8.560;2023-09-30T03:42:44;101367.78;;;15.45;98.96
34931;BME280;21134;49.646;8.560;2023-09-30T03:45:11;101363.53;;;15.37;99.34
34931;BME280;21134;49.646;8.560;2023-09-30T03:47:40;101373.88;;;15.33;99.39
34931;BME280;21134;49.646;8.560;2023-09-30T03:50:07;101378.22;;;15.27;99.84
34931;BME280;21134;49.646;8.560;2023-09-30T03:52:38;101376.53;;;15.23;99.95
34931;BME280;21134;49.646;8.560;2023-09-30T03:55:06;101390.34;;;15.16;100.00
34931;BME280;21134;49.646;8.560;2023-09-30T03:57:34;101384.31;;;15.09;100.00
34931;BME280;21134;49.646;8.560;2023-09-30T04:00:01;101380.06;;;15.06;100.00
34931;BME280;21134;49.646;8.560;2023-09-30T04:02:31;101377.50;;;15.06;100.00
34931;BME280;21134;49.646;8.560;2023-09-30T04:04:57;101379.16;;;15.09;100.00
34931;BME280;21134;49.646;8.560;2023-09-30T04:07:24;101388.66;;;15.07;100.00
34931;BME280;21134;49.646;8.560;2023-09-30T04:09:53;101387.75;;;15.11;100.00
34931;BME280;21134;49.646;8.560;2023-09-30T04:12:20;101392.06;;;15.14;100.00
34931;BME280;21134;49.646;8.560;2023-09-30T04:14:48;101385.16;;;15.14;100.00
34931;BME280;21134;49.646;8.560;2023-09-30T04:17:15;101382.59;;;15.14;100.00
34931;BME280;21134;49.646;8.560;2023-09-30T04:19:41;101386.03;;;15.15;100.00
34931;BME280;21134;49.646;8.560;2023-09-30T04:22:07;101380.88;;;15.16;100.00
34931;BME280;21134;49.646;8.560;2023-09-30T04:24:34;101394.63;;;15.17;100.00
34931;BME280;21134;49.646;8.560;2023-09-30T04:27:00;101390.31;;;15.17;99.94
34931;BME280;21134;49.646;8.560;2023-09-30T04:29:31;101382.56;;;15.17;99.92
34931;BME280;21134;49.646;8.560;2023-09-30T04:31:59;101382.59;;;15.16;100.00
34931;BME280;21134;49.646;8.560;2023-09-30T04:34:25;101386.00;;;15.19;100.00
34931;BME280;21134;49.646;8.560;2023-09-30T04:36:53;101380.84;;;15.18;100.00
34931;BME280;21134;49.646;8.560;2023-09-30T04:39:19;101381.72;;;15.20;100.00
34931;BME280;21134;49.646;8.560;2023-09-30T04:41:46;101390.28;;;15.20;99.58
34931;BME280;21134;49.646;8.560;2023-09-30T04:44:12;101402.34;;;15.20;99.68
34931;BME280;21134;49.646;8.560;2023-09-30T04:46:39;101400.56;;;15.29;99.14
34931;BME280;21134;49.646;8.560;2023-09-30T04:49:07;101400.56;;;15.28;99.05
34931;BME280;21134;49.646;8.560;2023-09-30T04:51:34;101407.38;;;15.41;98.23
34931;BME280;21134;49.646;8.560;2023-09-30T04:54:00;101404.78;;;15.40;97.58
34931;BME280;21134;49.646;8.560;2023-09-30T04:56:29;101391.88;;;15.43;97.29
34931;BME280;21134;49.646;8.560;2023-09-30T04:58:55;101390.16;;;15.42;97.10
34931;BME280;21134;49.646;8.560;2023-09-30T05:01:22;101390.16;;;15.42;97.59
34931;BME280;21134;49.646;8.560;2023-09-30T05:03:48;101385.03;;;15.39;97.43
34931;BME280;21134;49.646;8.560;2023-09-30T05:06:16;101379.00;;;15.41;98.09
34931;BME280;21134;49.646;8.560;2023-09-30T05:08:43;101392.75;;;15.37;98.47
34931;BME280;21134;49.646;8.560;2023-09-30T05:11:09;101394.50;;;15.33;98.64
34931;BME280;21134;49.646;8.560;2023-09-30T05:13:36;101383.19;;;15.53;97.36
34931;BME280;21134;49.646;8.560;2023-09-30T05:16:02;101399.63;;;15.41;97.70
34931;BME280;21134;49.646;8.560;2023-09-30T05:18:29;101404.81;;;15.37;97.42
34931;BME280;21134;49.646;8.560;2023-09-30T05:20:55;101413.34;;;15.43;96.51
34931;BME280;21134;49.646;8.560;2023-09-30T05:23:24;101424.50;;;15.50;96.10
34931;BME280;21134;49.646;8.560;2023-09-30T05:25:50;101423.66;;;15.48;95.74
34931;BME280;21134;49.646;8.560;2023-09-30T05:28:19;101431.44;;;15.37;96.79
34931;BME280;21134;49.646;8.560;2023-09-30T05:30:46;101422.88;;;15.30;97.79
34931;BME280;21134;49.646;8.560;2023-09-30T05:33:12;101434.09;;;15.25;98.02
34931;BME280;21134;49.646;8.560;2023-09-30T05:35:39;101428.09;;;15.23;98.18
34931;BME280;21134;49.646;8.560;2023-09-30T05:38:06;101423.81;;;15.20;98.01
34931;BME280;21134;49.646;8.560;2023-09-30T05:40:34;101434.97;;;15.24;97.49
34931;BME280;21134;49.646;8.560;2023-09-30T05:43:01;101433.25;;;15.23;97.94
34931;BME280;21134;49.646;8.560;2023-09-30T05:45:31;101434.13;;;15.19;98.34
34931;BME280;21134;49.646;8.560;2023-09-30T05:48:01;101437.59;;;15.16;98.21
34931;BME280;21134;49.646;8.560;2023-09-30T05:50:31;101437.56;;;15.15;98.45
34931;BME280;21134;49.646;8.560;2023-09-30T05:52:59;101441.88;;;15.17;98.33
34931;BME280;21134;49.646;8.560;2023-09-30T05:55:25;101443.59;;;15.20;98.22
34931;BME280;21134;49.646;8.560;2023-09-30T05:57:54;101439.28;;;15.17;97.86
34931;BME280;21134;49.646;8.560;2023-09-30T06:00:21;101434.13;;;15.17;98.04
34931;BME280;21134;49.646;8.560;2023-09-30T06:02:47;101422.94;;;15.21;97.46
34931;BME280;21134;49.646;8.560;2023-09-30T06:05:15;101437.56;;;15.25;97.42
34931;BME280;21134;49.646;8.560;2023-09-30T06:07:44;101436.66;;;15.25;97.58
34931;BME280;21134;49.646;8.560;2023-09-30T06:10:11;101446.97;;;15.25;97.34
34931;BME280;21134;49.646;8.560;2023-09-30T06:12:37;101445.28;;;15.24;97.63
34931;BME280;21134;49.646;8.560;2023-09-30T06:15:07;101450.47;;;15.22;97.16
34931;BME280;21134;49.646;8.560;2023-09-30T06:17:34;101451.31;;;15.23;97.37
34931;BME280;21134;49.646;8.560;2023-09-30T06:20:04;101449.59;;;15.23;98.18
34931;BME280;21134;49.646;8.560;2023-09-30T06:22:33;101438.38;;;15.27;98.45
34931;BME280;21134;49.646;8.560;2023-09-30T06:25:00;101455.53;;;15.34;97.83
34931;BME280;21134;49.646;8.560;2023-09-30T06:27:27;101456.41;;;15.38;98.00
34931;BME280;21134;49.646;8.560;2023-09-30T06:29:54;101447.78;;;15.39;97.95
34931;BME280;21134;49.646;8.560;2023-09-30T06:32:22;101449.47;;;15.43;97.52
34931;BME280;21134;49.646;8.560;2023-09-30T06:34:48;101447.72;;;15.50;97.58
34931;BME280;21134;49.646;8.560;2023-09-30T06:37:15;101448.53;;;15.58;97.42
34931;BME280;21134;49.646;8.560;2023-09-30T06:39:43;101462.22;;;15.66;97.35
34931;BME280;21134;49.646;8.560;2023-09-30T06:42:10;101472.53;;;15.77;94.95
34931;BME280;21134;49.646;8.560;2023-09-30T06:44:36;101486.22;;;15.87;93.94
34931;BME280;21134;49.646;8.560;2023-09-30T06:47:03;101476.66;;;15.98;92.58
34931;BME280;21134;49.646;8.560;2023-09-30T06:49:33;101474.88;;;16.09;91.24
34931;BME280;21134;49.646;8.560;2023-09-30T06:52:00;101486.03;;;16.13;89.40
34931;BME280;21134;49.646;8.560;2023-09-30T06:54:28;101475.59;;;16.25;88.36
34931;BME280;21134;49.646;8.560;2023-09-30T06:56:55;101461.78;;;16.29;87.77
34931;BME280;21134;49.646;8.560;2023-09-30T06:59:21;101467.78;;;16.33;87.06
34931;BME280;21134;49.646;8.560;2023-09-30T07:01:48;101478.13;;;16.31;86.54
34931;BME280;21134;49.646;8.560;2023-09-30T07:04:14;101478.16;;;16.28;86.40
34931;BME280;21134;49.646;8.560;2023-09-30T07:06:42;101485.88;;;16.31;86.69
34931;BME280;21134;49.646;8.560;2023-09-30T07:09:08;101487.41;;;16.49;84.90
34931;BME280;21134;49.646;8.560;2023-09-30T07:11:37;101479.59;;;16.58;84.08
34931;BME280;21134;49.646;8.560;2023-09-30T07:14:04;101497.78;;;16.47;84.74
34931;BME280;21134;49.646;8.560;2023-09-30T07:16:30;101500.28;;;16.57;84.94
34931;BME280;21134;49.646;8.560;2023-09-30T07:18:57;101510.50;;;16.69;84.63
34931;BME280;21134;49.646;8.560;2023-09-30T07:21:24;101519.84;;;16.84;83.82
34931;BME280;21134;49.646;8.560;2023-09-30T07:23:51;101519.78;;;16.90;83.41
34931;BME280;21134;49.646;8.560;2023-09-30T07:26:23;101517.94;;;17.00;81.57
34931;BME280;21134;49.646;8.560;2023-09-30T07:28:49;101510.13;;;17.07;79.20
34931;BME280;21134;49.646;8.560;2023-09-30T07:31:16;101508.50;;;16.97;79.78
34931;BME280;21134;49.646;8.560;2023-09-30T07:33:42;101496.47;;;16.94;78.09
34931;BME280;21134;49.646;8.560;2023-09-30T07:36:09;101497.31;;;16.98;78.41
34931;BME280;21134;49.646;8.560;2023-09-30T07:38:35;101502.41;;;17.04;77.21
34931;BME280;21134;49.646;8.560;2023-09-30T07:41:03;101505.63;;;17.22;74.88
34931;BME280;21134;49.646;8.560;2023-09-30T07:43:30;101507.56;;;17.03;75.63
34931;BME280;21134;49.646;8.560;2023-09-30T07:45:57;101502.38;;;17.06;76.35
34931;BME280;21134;49.646;8.560;2023-09-30T07:48:24;101513.50;;;17.14;76.61
34931;BME280;21134;49.646;8.560;2023-09-30T07:50:51;101521.03;;;17.29;75.48
34931;BME280;21134;49.646;8.560;2023-09-30T07:53:17;101520.09;;;17.38;74.71
34931;BME280;21134;49.646;8.560;2023-09-30T07:55:44;101514.13;;;17.33;74.10
34931;BME280;21134;49.646;8.560;2023-09-30T07:58:12;101511.50;;;17.34;74.77
34931;BME280;21134;49.646;8.560;2023-09-30T08:00:38;101508.00;;;17.40;74.61
34931;BME280;21134;49.646;8.560;2023-09-30T08:03:05;101501.94;;;17.41;75.28
34931;BME280;21134;49.646;8.560;2023-09-30T08:05:31;101497.63;;;17.41;74.77
34931;BME280;21134;49.646;8.560;2023-09-30T08:07:58;101505.38;;;17.43;75.26
34931;BME280;21134;49.646;8.560;2023-09-30T08:10:24;101507.94;;;17.44;75.58
34931;BME280;21134;49.646;8.560;2023-09-30T08:12:51;101511.25;;;17.56;74.95
34931;BME280;21134;49.646;8.560;2023-09-30T08:15:19;101517.03;;;17.75;74.86
34931;BME280;21134;49.646;8.560;2023-09-30T08:17:46;101512.31;;;18.03;71.29
34931;BME280;21134;49.646;8.560;2023-09-30T08:20:12;101507.72;;;18.20;69.93
34931;BME280;21134;49.646;8.560;2023-09-30T08:22:39;101509.28;;;18.30;70.16
34931;BME280;21134;49.646;8.560;2023-09-30T08:25:07;101504.09;;;18.30;71.65
34931;BME280;21134;49.646;8.560;2023-09-30T08:27:34;101507.56;;;18.29;71.26
34931;BME280;21134;49.646;8.560;2023-09-30T08:30:00;101505.88;;;18.28;71.48
34931;BME280;21134;49.646;8.560;2023-09-30T08:32:33;101514.41;;;18.33;71.60
34931;BME280;21134;49.646;8.560;2023-09-30T08:35:00;101517.03;;;18.32;71.25
34931;BME280;21134;49.646;8.560;2023-09-30T08:37:28;101525.72;;;18.29;71.27
34931;BME280;21134;49.646;8.560;2023-09-30T08:39:55;101527.25;;;18.41;70.51
34931;BME280;21134;49.646;8.560;2023-09-30T08:42:22;101528.09;;;18.40;70.88
34931;BME280;21134;49.646;8.560;2023-09-30T08:44:51;101524.56;;;18.46;71.37
34931;BME280;21134;49.646;8.560;2023-09-30T08:47:19;101534.13;;;18.42;69.77
34931;BME280;21134;49.646;8.560;2023-09-30T08:49:49;101536.78;;;18.38;69.72
34931;BME280;21134;49.646;8.560;2023-09-30T08:52:20;101535.88;;;18.42;69.05
34931;BME280;21134;49.646;8.560;2023-09-30T08:54:47;101539.50;;;18.31;68.30
34931;BME280;21134;49.646;8.560;2023-09-30T08:57:15;101530.84;;;18.31;69.17
34931;BME280;21134;49.646;8.560;2023-09-30T08:59:46;101524.09;;;18.21;69.72
34931;BME280;21134;49.646;8.560;2023-09-30T09:02:14;101527.34;;;18.35;68.94
34931;BME280;21134;49.646;8.560;2023-09-30T09:04:42;101530.84;;;18.31;68.89
34931;BME280;21134;49.646;8.560;2023-09-30T09:07:10;101535.97;;;18.34;68.97
34931;BME280;21134;49.646;8.560;2023-09-30T09:09:36;101533.38;;;18.34;67.93
34931;BME280;21134;49.646;8.560;2023-09-30T09:12:04;101537.75;;;18.32;67.33
34931;BME280;21134;49.646;8.560;2023-09-30T09:14:37;101528.91;;;18.44;65.00
34931;BME280;21134;49.646;8.560;2023-09-30T09:17:06;101532.44;;;18.40;65.73
34931;BME280;21134;49.646;8.560;2023-09-30T09:19:33;101525.41;;;18.46;65.21
34931;BME280;21134;49.646;8.560;2023-09-30T09:22:01;101522.81;;;18.46;65.36
34931;BME280;21134;49.646;8.560;2023-09-30T09:24:32;101531.28;;;18.56;66.01
34931;BME280;21134;49.646;8.560;2023-09-30T09:27:07;101533.09;;;18.54;64.74
34931;BME280;21134;49.646;8.560;2023-09-30T09:29:38;101538.13;;;18.60;63.44
34931;BME280;21134;49.646;8.560;2023-09-30T09:32:09;101540.63;;;18.66;63.77
34931;BME280;21134;49.646;8.560;2023-09-30T09:34:36;101530.28;;;18.65;63.97
34931;BME280;21134;49.646;8.560;2023-09-30T09:37:13;101527.34;;;18.86;63.04
34931;BME280;21134;49.646;8.560;2023-09-30T09:39:48;101523.03;;;18.85;64.60
34931;BME280;21134;49.646;8.560;2023-09-30T09:42:24;101534.06;;;18.96;63.97
34931;BME280;21134;49.646;8.560;2023-09-30T09:44:52;101528.09;;;18.93;64.10
34931;BME280;21134;49.646;8.560;2023-09-30T09:47:21;101533.16;;;18.99;64.09
34931;BME280;21134;49.646;8.560;2023-09-30T09:49:48;101537.28;;;19.09;63.22
34931;BME280;21134;49.646;8.560;2023-09-30T09:52:17;101537.28;;;19.08;61.65
34931;BME280;21134;49.646;8.560;2023-09-30T09:54:46;101536.31;;;19.13;61.70
34931;BME280;21134;49.646;8.560;2023-09-30T09:57:14;101537.81;;;19.25;62.21
34931;BME280;21134;49.646;8.560;2023-09-30T09:59:43;101545.38;;;19.36;62.16
34931;BME280;21134;49.646;8.560;2023-09-30T10:02:12;101541.03;;;19.38;61.67
34931;BME280;21134;49.646;8.560;2023-09-30T10:04:40;101544.53;;;19.35;61.31
34931;BME280;21134;49.646;8.560;2023-09-30T10:07:09;101540.41;;;19.25;63.67
34931;BME280;21134;49.646;8.560;2023-09-30T10:09:41;101534.34;;;19.26;63.80
34931;BME280;21134;49.646;8.560;2023-09-30T10:12:12;101522.81;;;19.39;62.06
34931;BME280;21134;49.646;8.560;2023-09-30T10:14:39;101523.28;;;19.58;62.20
34931;BME280;21134;49.646;8.560;2023-09-30T10:17:05;101514.53;;;19.62;61.45
34931;BME280;21134;49.646;8.560;2023-09-30T10:19:32;101506.69;;;19.67;61.78
34931;BME280;21134;49.646;8.560;2023-09-30T10:22:20;101497.13;;;19.69;61.46
34931;BME280;21134;49.646;8.560;2023-09-30T10:24:52;101498.84;;;19.68;60.51
34931;BME280;21134;49.646;8.560;2023-09-30T10:27:33;101492.63;;;19.76;60.39
34931;BME280;21134;49.646;8.560;2023-09-30T10:30:06;101484.69;;;19.82;60.68
34931;BME280;21134;49.646;8.560;2023-09-30T10:33:12;101485.50;;;19.84;61.20
34931;BME280;21134;49.646;8.560;2023-09-30T10:35:47;101496.59;;;19.90;61.15
34931;BME280;21134;49.646;8.560;2023-09-30T10:38:39;101489.56;;;19.95;61.08
34931;BME280;21134;49.646;8.560;2023-09-30T10:41:09;101488.56;;;20.01;59.66
34931;BME280;21134;49.646;8.560;2023-09-30T10:43:39;101478.81;;;20.11;59.42
34931;BME280;21134;49.646;8.560;2023-09-30T10:46:31;101482.59;;;20.32;58.83
34931;BME280;21134;49.646;8.560;2023-09-30T10:49:32;101474.31;;;20.17;59.17
34931;BME280;21134;49.646;8.560;2023-09-30T10:52:01;101473.41;;;20.18;60.85
34931;BME280;21134;49.646;8.560;2023-09-30T10:54:28;101469.72;;;20.27;58.91
34931;BME280;21134;49.646;8.560;2023-09-30T10:56:55;101464.31;;;20.35;58.32
34931;BME280;21134;49.646;8.560;2023-09-30T10:59:26;101479.97;;;20.33;57.86
34931;BME280;21134;49.646;8.560;2023-09-30T11:01:55;101480.22;;;20.23;58.29
34931;BME280;21134;49.646;8.560;2023-09-30T11:04:22;101480.91;;;20.31;59.40
34931;BME280;21134;49.646;8.560;2023-09-30T11:06:48;101483.84;;;20.51;58.05
34931;BME280;21134;49.646;8.560;2023-09-30T11:09:17;101490.00;;;20.47;58.53
34931;BME280;21134;49.646;8.560;2023-09-30T11:11:45;101489.06;;;20.50;57.34
34931;BME280;21134;49.646;8.560;2023-09-30T11:14:19;101485.88;;;20.38;56.86
34931;BME280;21134;49.646;8.560;2023-09-30T11:16:47;101487.06;;;20.27;57.72
34931;BME280;21134;49.646;8.560;2023-09-30T11:19:14;101481.88;;;20.27;58.20
34931;BME280;21134;49.646;8.560;2023-09-30T11:21:42;101483.28;;;20.38;57.63
34931;BME280;21134;49.646;8.560;2023-09-30T11:24:09;101485.56;;;20.16;58.50
34931;BME280;21134;49.646;8.560;2023-09-30T11:26:36;101479.13;;;19.97;57.68
34931;BME280;21134;49.646;8.560;2023-09-30T11:29:06;101484.88;;;20.10;57.26
34931;BME280;21134;49.646;8.560;2023-09-30T11:31:33;101488.16;;;20.16;57.34
34931;BME280;21134;49.646;8.560;2023-09-30T11:34:01;101488.53;;;20.37;56.63
34931;BME280;21134;49.646;8.560;2023-09-30T11:36:29;101495.50;;;20.36;56.55
34931;BME280;21134;49.646;8.560;2023-09-30T11:38:57;101485.34;;;20.26;56.90
34931;BME280;21134;49.646;8.560;2023-09-30T11:41:32;101496.34;;;20.35;57.34
34931;BME280;21134;49.646;8.560;2023-09-30T11:44:00;101491.97;;;20.39;57.34
34931;BME280;21134;49.646;8.560;2023-09-30T11:46:27;101487.31;;;20.50;58.58
34931;BME280;21134;49.646;8.560;2023-09-30T11:48:58;101482.69;;;20.63;56.43
34931;BME280;21134;49.646;8.560;2023-09-30T11:51:27;101475.63;;;20.66;55.16
34931;BME280;21134;49.646;8.560;2023-09-30T11:53:54;101485.13;;;20.69;54.29
34931;BME280;21134;49.646;8.560;2023-09-30T11:56:21;101486.22;;;20.60;55.56
34931;BME280;21134;49.646;8.560;2023-09-30T11:58:53;101482.66;;;20.64;55.55
34931;BME280;21134;49.646;8.560;2023-09-30T12:01:19;101475.16;;;20.83;55.45
34931;BME280;21134;49.646;8.560;2023-09-30T12:03:47;101475.38;;;20.77;55.73
34931;BME280;21134;49.646;8.560;2023-09-30T12:06:14;101474.06;;;20.92;55.64
34931;BME280;21134;49.646;8.560;2023-09-30T12:08:43;101474.53;;;21.06;53.99
34931;BME280;21134;49.646;8.560;2023-09-30T12:11:10;101476.72;;;21.20;54.15
34931;BME280;21134;49.646;8.560;2023-09-30T12:13:38;101476.88;;;21.16;54.21
34931;BME280;21134;49.646;8.560;2023-09-30T12:16:05;101478.56;;;21.17;53.38
34931;BME280;21134;49.646;8.560;2023-09-30T12:18:31;101476.41;;;21.31;53.09
34931;BME280;21134;49.646;8.560;2023-09-30T12:20:58;101472.19;;;21.27;53.28
34931;BME280;21134;49.646;8.560;2023-09-30T12:23:25;101461.13;;;21.20;54.25
34931;BME280;21134;49.646;8.560;2023-09-30T12:25:53;101451.69;;;21.16;53.69
34931;BME280;21134;49.646;8.560;2023-09-30T12:28:20;101457.59;;;21.21;52.77
34931;BME280;21134;49.646;8.560;2023-09-30T12:30:46;101460.00;;;21.29;52.69
34931;BME280;21134;49.646;8.560;2023-09-30T12:33:13;101445.97;;;21.33;52.96
34931;BME280;21134;49.646;8.560;2023-09-30T12:35:39;101445.56;;;21.47;53.55
34931;BME280;21134;49.646;8.560;2023-09-30T12:38:05;101443.03;;;21.73;52.42
34931;BME280;21134;49.646;8.560;2023-09-30T12:40:32;101435.78;;;21.81;52.29
34931;BME280;21134;49.646;8.560;2023-09-30T12:43:00;101437.66;;;21.78;52.02
34931;BME280;21134;49.646;8.560;2023-09-30T12:45:27;101432.81;;;21.66;52.32
34931;BME280;21134;49.646;8.560;2023-09-30T12:47:53;101432.72;;;21.69;52.19
34931;BME280;21134;49.646;8.560;2023-09-30T12:50:21;101429.84;;;21.50;52.43
34931;BME280;21134;49.646;8.560;2023-09-30T12:52:48;101432.56;;;21.17;53.01
34931;BME280;21134;49.646;8.560;2023-09-30T12:55:14;101428.09;;;21.22;53.26